createdAt,value
2022-12-09T00:01:35.660Z,1.50
2022-12-09T00:04:03.977Z,1.50
2022-12-09T00:06:34.447Z,1.50
2022-12-09T00:09:04.617Z,1.50
2022-12-09T00:11:32.932Z,1.50
2022-12-09T00:14:06.956Z,1.50
2022-12-09T00:16:40.350Z,1.50
2022-12-09T00:19:11.142Z,1.60
2022-12-09T00:21:42.443Z,1.60
2022-12-09T00:24:17.705Z,1.60
2022-12-09T00:26:51.709Z,1.60
2022-12-09T00:29:19.746Z,1.60
2022-12-09T00:31:47.883Z,1.60
2022-12-09T00:34:19.374Z,1.60
2022-12-09T00:36:47.692Z,1.60
2022-12-09T00:39:20.079Z,1.60
2022-12-09T00:41:49.238Z,1.60
2022-12-09T00:44:17.293Z,1.60
2022-12-09T00:46:45.364Z,1.60
2022-12-09T00:49:15.127Z,1.60
2022-12-09T00:51:43.138Z,1.60
2022-12-09T00:54:11.500Z,1.60
2022-12-09T00:56:41.818Z,1.70
2022-12-09T00:59:10.765Z,1.60
2022-12-09T01:01:45.171Z,1.60
2022-12-09T01:04:14.023Z,1.60
2022-12-09T01:06:42.156Z,1.60
2022-12-09T01:09:10.608Z,1.60
2022-12-09T01:11:41.654Z,1.60
2022-12-09T01:14:11.343Z,1.60
2022-12-09T01:16:39.559Z,1.60
2022-12-09T01:19:08.395Z,1.50
2022-12-09T01:21:36.733Z,1.50
2022-12-09T01:24:10.158Z,1.50
2022-12-09T01:26:39.148Z,1.50
2022-12-09T01:29:18.102Z,1.40
2022-12-09T01:31:46.136Z,1.40
2022-12-09T01:34:14.388Z,1.40
2022-12-09T01:36:42.424Z,1.40
2022-12-09T01:39:12.565Z,1.40
2022-12-09T01:41:42.737Z,1.40
2022-12-09T01:44:16.912Z,1.30
2022-12-09T01:46:46.974Z,1.30
2022-12-09T01:49:20.432Z,1.30
2022-12-09T01:51:50.990Z,1.20
2022-12-09T01:54:19.275Z,1.10
2022-12-09T01:56:47.550Z,1.20
2022-12-09T01:59:18.157Z,1.10
2022-12-09T02:01:53.937Z,1.10
2022-12-09T02:04:22.137Z,1.10
2022-12-09T02:06:52.509Z,1.10
2022-12-09T02:09:20.930Z,0.50
2022-12-09T02:11:57.768Z,1.10
2022-12-09T02:14:30.746Z,1.00
2022-12-09T02:17:07.156Z,1.00
2022-12-09T02:19:45.785Z,1.00
2022-12-09T02:22:16.887Z,1.00
2022-12-09T02:24:49.866Z,1.10
2022-12-09T02:27:19.500Z,1.10
2022-12-09T02:29:58.488Z,1.10
2022-12-09T02:32:42.563Z,1.10
2022-12-09T02:35:18.051Z,1.10
2022-12-09T02:37:50.526Z,1.10
2022-12-09T02:40:25.249Z,1.10
2022-12-09T02:42:55.863Z,1.10
2022-12-09T02:45:25.911Z,1.10
2022-12-09T02:47:54.634Z,1.10
2022-12-09T02:50:26.592Z,1.20
2022-12-09T02:53:01.550Z,1.20
2022-12-09T02:55:33.076Z,1.20
2022-12-09T02:58:01.801Z,1.20
2022-12-09T03:00:32.083Z,1.20
2022-12-09T03:03:04.115Z,1.20
2022-12-09T03:05:48.064Z,1.20
2022-12-09T03:08:29.091Z,1.30
2022-12-09T03:10:59.301Z,1.20
2022-12-09T03:13:34.499Z,1.30
2022-12-09T03:16:04.815Z,1.30
2022-12-09T03:18:34.700Z,1.30
2022-12-09T03:21:19.903Z,1.30
2022-12-09T03:23:48.521Z,1.30
2022-12-09T03:26:16.866Z,1.30
2022-12-09T03:28:48.688Z,1.30
2022-12-09T03:31:18.769Z,1.30
2022-12-09T03:33:54.899Z,1.30
2022-12-09T03:36:28.751Z,1.30
2022-12-09T03:38:56.925Z,1.30
2022-12-09T03:41:28.020Z,1.30
2022-12-09T03:43:59.211Z,1.30
2022-12-09T03:46:29.817Z,1.40
2022-12-09T03:48:59.952Z,1.40
2022-12-09T03:51:31.486Z,1.40
2022-12-09T03:54:01.349Z,1.40
2022-12-09T03:56:33.727Z,1.40
2022-12-09T03:59:03.517Z,1.40
2022-12-09T04:01:33.102Z,1.40
2022-12-09T04:04:01.583Z,1.40
2022-12-09T04:06:38.613Z,1.40
2022-12-09T04:09:08.680Z,1.40
2022-12-09T04:11:37.344Z,1.40
2022-12-09T04:14:09.156Z,1.30
2022-12-09T04:16:40.391Z,1.30
2022-12-09T04:19:11.148Z,1.30
2022-12-09T04:21:43.546Z,1.30
2022-12-09T04:24:13.616Z,1.30
2022-12-09T04:26:52.712Z,1.20
2022-12-09T04:29:21.908Z,1.30
2022-12-09T04:31:51.412Z,1.30
2022-12-09T04:34:19.803Z,1.20
2022-12-09T04:36:49.507Z,1.20
2022-12-09T04:39:17.621Z,1.20
2022-12-09T04:41:46.014Z,1.20
2022-12-09T04:44:18.262Z,1.20
2022-12-09T04:46:46.773Z,1.10
2022-12-09T04:49:20.535Z,1.10
2022-12-09T04:51:50.531Z,1.10
2022-12-09T04:54:18.572Z,1.10
2022-12-09T04:56:48.411Z,1.10
2022-12-09T04:59:16.820Z,1.10
2022-12-09T05:01:45.112Z,1.00
2022-12-09T05:04:15.750Z,1.00
2022-12-09T05:06:44.189Z,1.00
2022-12-09T05:09:14.622Z,1.00
2022-12-09T05:11:46.305Z,1.00
2022-12-09T05:14:14.909Z,0.90
2022-12-09T05:16:43.043Z,0.90
2022-12-09T05:19:11.962Z,0.90
2022-12-09T05:21:40.156Z,0.90
2022-12-09T05:24:24.381Z,0.90
2022-12-09T05:26:56.505Z,0.90
2022-12-09T05:29:24.879Z,0.80
2022-12-09T05:31:53.444Z,0.80
2022-12-09T05:34:21.875Z,0.80
2022-12-09T05:36:50.250Z,0.80
2022-12-09T05:39:22.125Z,0.70
2022-12-09T05:41:54.388Z,0.70
2022-12-09T05:44:24.420Z,0.70
2022-12-09T05:46:52.843Z,0.60
2022-12-09T05:49:21.271Z,0.60
2022-12-09T05:51:49.774Z,0.50
2022-12-09T05:54:22.393Z,0.50
2022-12-09T05:56:52.092Z,0.50
2022-12-09T05:59:24.313Z,0.50
2022-12-09T06:02:28.022Z,0.40
2022-12-09T06:04:58.820Z,0.40
2022-12-09T06:07:27.095Z,0.40
2022-12-09T06:09:55.659Z,0.40
2022-12-09T06:12:23.974Z,0.30
2022-12-09T06:14:53.795Z,0.30
2022-12-09T06:17:22.231Z,0.30
2022-12-09T06:19:50.598Z,0.20
2022-12-09T06:22:19.133Z,0.20
2022-12-09T06:24:51.013Z,0.20
2022-12-09T06:27:22.306Z,0.20
2022-12-09T06:29:54.108Z,0.80
2022-12-09T06:32:23.839Z,0.20
2022-12-09T06:34:52.227Z,0.20
2022-12-09T06:37:20.677Z,0.20
2022-12-09T06:39:48.664Z,0.10
2022-12-09T06:42:16.820Z,0.10
2022-12-09T06:44:44.912Z,0.10
2022-12-09T06:47:13.296Z,0.10
2022-12-09T06:49:45.764Z,0.10
2022-12-09T06:52:14.830Z,0.10
2022-12-09T06:54:48.138Z,0.10
2022-12-09T06:57:16.609Z,0.10
2022-12-09T06:59:44.680Z,0.10
2022-12-09T07:02:17.910Z,0.10
2022-12-09T07:04:47.953Z,0.10
2022-12-09T07:07:16.801Z,0.10
2022-12-09T07:09:45.096Z,0.10
2022-12-09T07:12:18.481Z,0.10
2022-12-09T07:14:57.604Z,0.10
2022-12-09T07:17:26.422Z,0.00
2022-12-09T07:19:59.035Z,0.10
2022-12-09T07:22:33.720Z,0.00
2022-12-09T07:25:06.105Z,0.00
2022-12-09T07:27:35.717Z,0.00
2022-12-09T07:30:05.515Z,0.00
2022-12-09T07:32:33.812Z,0.00
2022-12-09T07:35:03.995Z,0.00
2022-12-09T07:37:32.366Z,0.00
2022-12-09T07:40:02.431Z,0.00
2022-12-09T07:42:31.883Z,0.00
2022-12-09T07:45:03.184Z,0.00
2022-12-09T07:47:32.637Z,0.00
2022-12-09T07:50:06.223Z,0.00
2022-12-09T07:52:37.155Z,0.00
2022-12-09T07:55:09.545Z,0.00
2022-12-09T07:57:38.743Z,0.00
2022-12-09T08:00:08.087Z,0.00
2022-12-09T08:02:36.165Z,0.00
2022-12-09T08:05:04.684Z,0.00
2022-12-09T08:07:44.928Z,0.00
2022-12-09T08:10:13.965Z,0.00
2022-12-09T08:12:42.435Z,0.00
2022-12-09T08:15:11.449Z,0.00
2022-12-09T08:17:51.705Z,0.00
2022-12-09T08:20:25.213Z,0.00
2022-12-09T08:22:59.203Z,0.00
2022-12-09T08:25:27.361Z,0.00
2022-12-09T08:27:56.314Z,0.00
2022-12-09T08:30:25.072Z,0.00
2022-12-09T08:32:53.393Z,0.00
2022-12-09T08:35:22.368Z,0.10
2022-12-09T08:37:50.875Z,0.10
2022-12-09T08:40:29.525Z,0.10
2022-12-09T08:42:58.033Z,0.10
2022-12-09T08:45:26.248Z,0.00
2022-12-09T08:47:54.827Z,0.00
2022-12-09T08:50:23.409Z,0.00
2022-12-09T08:52:53.508Z,0.00
2022-12-09T08:55:24.690Z,0.00
2022-12-09T08:57:54.686Z,0.10
2022-12-09T09:00:23.284Z,0.10
2022-12-09T09:02:52.057Z,0.00
2022-12-09T09:05:21.036Z,0.00
2022-12-09T09:07:49.589Z,0.00
2022-12-09T09:10:18.028Z,0.00
2022-12-09T09:12:46.442Z,0.00
2022-12-09T09:15:17.117Z,0.00
2022-12-09T09:17:51.328Z,0.00
2022-12-09T09:20:20.426Z,0.00
2022-12-09T09:23:06.986Z,0.00
2022-12-09T09:25:35.176Z,0.00
2022-12-09T09:28:03.649Z,0.00
2022-12-09T09:30:43.904Z,0.00
2022-12-09T09:33:14.685Z,0.10
2022-12-09T09:35:43.049Z,0.10
2022-12-09T09:38:11.392Z,0.10
2022-12-09T09:40:41.547Z,0.10
2022-12-09T09:43:15.590Z,0.10
2022-12-09T09:45:49.191Z,0.20
2022-12-09T09:48:19.982Z,0.20
2022-12-09T09:50:53.093Z,0.20
2022-12-09T09:53:24.725Z,0.20
2022-12-09T09:55:56.903Z,0.30
2022-12-09T09:58:30.305Z,0.20
2022-12-09T10:01:03.316Z,0.30
2022-12-09T10:03:36.625Z,0.30
2022-12-09T10:06:08.738Z,0.30
2022-12-09T10:08:39.885Z,0.30
2022-12-09T10:11:14.030Z,0.30
2022-12-09T10:13:49.431Z,0.40
2022-12-09T10:16:21.042Z,0.40
2022-12-09T10:18:57.851Z,0.40
2022-12-09T10:21:34.107Z,0.40
2022-12-09T10:24:13.251Z,0.40
2022-12-09T10:26:41.384Z,0.40
2022-12-09T10:29:14.203Z,0.40
2022-12-09T10:31:46.699Z,0.30
2022-12-09T10:34:15.289Z,0.30
2022-12-09T10:36:44.698Z,0.30
2022-12-09T10:39:15.861Z,0.20
2022-12-09T10:42:03.282Z,0.20
2022-12-09T10:44:31.965Z,0.20
2022-12-09T10:47:05.248Z,0.10
2022-12-09T10:49:34.862Z,0.10
2022-12-09T10:52:04.633Z,0.10
2022-12-09T10:54:41.675Z,0.10
2022-12-09T10:57:26.825Z,0.10
2022-12-09T11:00:08.018Z,0.10
2022-12-09T11:02:38.286Z,0.00
2022-12-09T11:05:23.106Z,0.00
2022-12-09T11:07:52.359Z,0.00
2022-12-09T11:10:24.894Z,0.00
2022-12-09T11:12:59.109Z,-0.10
2022-12-09T11:15:29.745Z,-0.10
2022-12-09T11:18:01.511Z,-0.10
2022-12-09T11:20:30.634Z,-0.20
2022-12-09T11:23:06.551Z,-0.10
2022-12-09T11:25:36.904Z,-0.10
2022-12-09T11:28:07.462Z,-0.10
2022-12-09T11:30:47.135Z,-0.10
2022-12-09T11:33:29.019Z,-0.10
2022-12-09T11:36:03.609Z,0.00
2022-12-09T11:38:34.254Z,-0.10
2022-12-09T11:41:07.241Z,-0.10
2022-12-09T11:43:38.891Z,-0.10
2022-12-09T11:46:16.450Z,-0.10
2022-12-09T11:48:49.814Z,-0.10
2022-12-09T11:51:21.293Z,-0.10
2022-12-09T11:53:53.150Z,-0.10
2022-12-09T11:56:28.837Z,0.00
2022-12-09T11:59:01.026Z,-0.10
2022-12-09T12:01:32.314Z,0.00
2022-12-09T12:04:10.203Z,-0.10
2022-12-09T12:06:43.712Z,0.00
2022-12-09T12:09:18.554Z,0.00
2022-12-09T12:11:49.229Z,0.00
2022-12-09T12:14:32.277Z,0.00
2022-12-09T12:17:06.209Z,0.00
2022-12-09T12:19:37.016Z,0.00
2022-12-09T12:22:20.932Z,0.00
2022-12-09T12:24:57.975Z,0.00
2022-12-09T12:27:35.078Z,0.00
2022-12-09T12:30:05.123Z,0.10
2022-12-09T12:32:44.396Z,0.10
2022-12-09T12:35:22.366Z,0.00
2022-12-09T12:37:59.557Z,0.00
2022-12-09T12:40:33.437Z,0.00
2022-12-09T12:43:24.302Z,0.00
2022-12-09T12:46:11.946Z,0.00
2022-12-09T12:48:46.665Z,0.10
2022-12-09T12:51:21.854Z,0.10
2022-12-09T12:53:53.834Z,0.10
2022-12-09T12:56:27.757Z,0.20
2022-12-09T12:59:00.590Z,0.20
2022-12-09T13:01:31.149Z,0.10
2022-12-09T13:04:17.385Z,0.20
2022-12-09T13:06:48.247Z,0.20
2022-12-09T13:09:19.350Z,0.20
2022-12-09T13:11:56.161Z,0.10
2022-12-09T13:14:32.129Z,0.10
2022-12-09T13:17:01.559Z,0.10
2022-12-09T13:19:32.368Z,0.10
2022-12-09T13:22:05.352Z,0.20
2022-12-09T13:24:37.861Z,0.20
2022-12-09T13:27:06.621Z,0.10
2022-12-09T13:29:37.917Z,0.10
2022-12-09T13:32:11.564Z,0.10
2022-12-09T13:34:41.367Z,0.10
2022-12-09T13:37:24.219Z,0.20
2022-12-09T13:40:10.582Z,0.20
2022-12-09T13:42:56.365Z,0.10
2022-12-09T13:45:33.641Z,0.10
2022-12-09T13:48:04.142Z,0.10
2022-12-09T13:50:35.804Z,0.20
2022-12-09T13:53:04.910Z,0.20
2022-12-09T13:55:47.797Z,0.20
2022-12-09T13:58:28.680Z,0.30
2022-12-09T14:01:04.638Z,0.30
2022-12-09T14:03:35.291Z,0.30
2022-12-09T14:06:06.427Z,0.30
2022-12-09T14:08:35.019Z,0.30
2022-12-09T14:11:31.398Z,0.40
2022-12-09T14:14:31.662Z,0.40
2022-12-09T14:17:00.207Z,0.30
2022-12-09T14:19:52.917Z,0.30
2022-12-09T14:22:33.111Z,0.30
2022-12-09T14:25:33.686Z,0.20
2022-12-09T14:28:16.627Z,0.20
2022-12-09T14:30:50.239Z,0.20
2022-12-09T14:33:22.334Z,0.20
2022-12-09T14:35:54.965Z,0.10
2022-12-09T14:38:24.560Z,0.10
2022-12-09T14:40:55.688Z,0.10
2022-12-09T14:43:50.659Z,0.10
2022-12-09T14:46:33.582Z,0.20
2022-12-09T14:49:05.753Z,0.20
2022-12-09T14:51:35.979Z,0.20
2022-12-09T14:54:06.018Z,0.20
2022-12-09T14:56:34.391Z,0.20
2022-12-09T14:59:05.986Z,0.20
2022-12-09T15:01:47.884Z,0.20
2022-12-09T15:04:26.845Z,0.20
2022-12-09T15:07:08.233Z,0.20
2022-12-09T15:09:36.409Z,0.20
2022-12-09T15:12:08.902Z,0.20
2022-12-09T15:14:38.414Z,0.20
2022-12-09T15:17:06.456Z,0.20
2022-12-09T15:19:59.682Z,0.20
2022-12-09T15:22:25.016Z,0.30
2022-12-09T15:24:53.709Z,0.30
2022-12-09T15:27:23.009Z,0.30
2022-12-09T15:29:53.621Z,0.30
2022-12-09T15:32:27.490Z,0.30
2022-12-09T15:35:15.591Z,0.30
2022-12-09T15:37:43.724Z,0.40
2022-12-09T15:40:13.325Z,0.40
2022-12-09T15:42:42.274Z,0.40
2022-12-09T15:45:11.775Z,0.40
2022-12-09T15:47:42.695Z,0.50
2022-12-09T15:50:18.188Z,0.50
2022-12-09T15:52:48.823Z,0.50
2022-12-09T15:55:18.639Z,0.50
2022-12-09T15:57:57.151Z,0.50
2022-12-09T16:00:25.614Z,0.50
2022-12-09T16:02:53.996Z,0.50
2022-12-09T16:05:25.219Z,0.50
2022-12-09T16:07:55.313Z,0.60
2022-12-09T16:10:26.973Z,0.60
2022-12-09T16:13:06.209Z,0.60
2022-12-09T16:15:42.834Z,0.60
2022-12-09T16:18:12.338Z,0.70
2022-12-09T16:20:45.895Z,0.70
2022-12-09T16:23:19.603Z,0.70
2022-12-09T16:25:49.531Z,0.80
2022-12-09T16:28:21.282Z,0.80
2022-12-09T16:30:50.398Z,0.80
2022-12-09T16:33:19.308Z,0.80
2022-12-09T16:35:57.835Z,0.80
2022-12-09T16:38:25.958Z,0.80
2022-12-09T16:41:01.350Z,0.80
2022-12-09T16:43:30.490Z,0.80
2022-12-09T16:45:59.891Z,0.90
2022-12-09T16:48:28.798Z,0.90
2022-12-09T16:51:00.071Z,0.90
2022-12-09T16:53:31.478Z,1.00
2022-12-09T16:56:00.839Z,1.00
2022-12-09T16:58:28.984Z,1.00
2022-12-09T17:00:57.297Z,1.00
2022-12-09T17:03:29.823Z,1.10
2022-12-09T17:05:59.280Z,1.10
2022-12-09T17:08:27.304Z,1.10
2022-12-09T17:10:55.365Z,1.10
2022-12-09T17:13:23.410Z,1.10
2022-12-09T17:15:52.982Z,1.10
2022-12-09T17:18:21.060Z,1.10
2022-12-09T17:20:49.060Z,1.20
2022-12-09T17:23:19.564Z,1.20
2022-12-09T17:25:56.194Z,1.20
2022-12-09T17:28:29.748Z,1.20
2022-12-09T17:30:58.428Z,1.20
2022-12-09T17:33:26.586Z,1.20
2022-12-09T17:35:54.612Z,1.20
2022-12-09T17:38:24.069Z,1.20
2022-12-09T17:40:52.206Z,1.30
2022-12-09T17:43:22.221Z,1.30
2022-12-09T17:45:50.461Z,1.30
2022-12-09T17:48:18.490Z,1.30
2022-12-09T17:50:46.561Z,1.30
2022-12-09T17:53:14.593Z,1.30
2022-12-09T17:55:44.145Z,1.30
2022-12-09T17:58:12.168Z,1.30
2022-12-09T18:00:40.347Z,1.40
2022-12-09T18:03:14.017Z,1.30
2022-12-09T18:05:48.002Z,1.40
2022-12-09T18:08:16.042Z,1.40
2022-12-09T18:10:45.458Z,1.40
2022-12-09T18:13:13.582Z,1.40
2022-12-09T18:15:41.580Z,1.40
2022-12-09T18:18:09.615Z,1.40
2022-12-09T18:20:38.215Z,1.40
2022-12-09T18:23:06.302Z,1.40
2022-12-09T18:25:34.403Z,1.40
2022-12-09T18:28:03.836Z,1.40
2022-12-09T18:30:31.838Z,1.40
2022-12-09T18:33:00.163Z,1.40
2022-12-09T18:35:28.411Z,1.40
2022-12-09T18:38:05.989Z,1.40
2022-12-09T18:41:00.006Z,1.40
2022-12-09T18:43:30.348Z,1.40
2022-12-09T18:46:01.637Z,1.40
2022-12-09T18:48:29.836Z,1.40
2022-12-09T18:50:58.835Z,1.40
2022-12-09T18:53:27.035Z,1.40
2022-12-09T18:55:55.085Z,1.40
2022-12-09T18:58:42.798Z,1.40
2022-12-09T19:01:20.493Z,1.40
2022-12-09T19:03:48.918Z,1.40
2022-12-09T19:06:20.252Z,1.40
2022-12-09T19:08:48.416Z,1.30
2022-12-09T19:11:19.464Z,1.40
2022-12-09T19:13:47.527Z,1.30
2022-12-09T19:16:17.681Z,1.30
2022-12-09T19:18:48.378Z,1.30
2022-12-09T19:21:17.134Z,1.30
2022-12-09T19:23:45.915Z,1.30
2022-12-09T19:26:14.364Z,1.30
2022-12-09T19:28:46.690Z,1.30
2022-12-09T19:31:16.289Z,1.30
2022-12-09T19:33:44.404Z,1.30
2022-12-09T19:36:16.141Z,1.30
2022-12-09T19:38:46.766Z,1.40
2022-12-09T19:41:14.880Z,1.40
2022-12-09T19:43:42.884Z,1.40
2022-12-09T19:46:11.941Z,1.40
2022-12-09T19:48:41.466Z,1.40
2022-12-09T19:51:10.476Z,1.40
2022-12-09T19:53:40.100Z,1.40
2022-12-09T19:56:13.166Z,1.40
2022-12-09T19:58:46.041Z,1.40
2022-12-09T20:01:14.998Z,1.40
2022-12-09T20:03:43.932Z,1.80
2022-12-09T20:06:12.907Z,1.40
2022-12-09T20:08:43.017Z,1.40
2022-12-09T20:11:12.532Z,1.40
2022-12-09T20:13:41.069Z,1.40
2022-12-09T20:16:10.219Z,1.40
2022-12-09T20:18:38.712Z,1.40
2022-12-09T20:21:07.735Z,1.40
2022-12-09T20:23:36.429Z,1.40
2022-12-09T20:26:07.147Z,1.40
2022-12-09T20:28:38.908Z,1.40
2022-12-09T20:31:07.904Z,1.40
2022-12-09T20:33:36.659Z,1.40
2022-12-09T20:36:08.921Z,1.40
2022-12-09T20:38:37.213Z,1.40
2022-12-09T20:41:09.766Z,1.40
2022-12-09T20:43:39.571Z,1.40
2022-12-09T20:46:08.920Z,1.30
2022-12-09T20:48:37.781Z,1.30
2022-12-09T20:51:06.605Z,1.40
2022-12-09T20:53:34.694Z,1.30
2022-12-09T20:56:03.605Z,1.30
2022-12-09T20:58:33.065Z,1.30
2022-12-09T21:01:05.574Z,1.30
2022-12-09T21:03:33.725Z,1.30
2022-12-09T21:06:01.728Z,1.30
2022-12-09T21:08:31.896Z,1.30
2022-12-09T21:11:04.320Z,1.40
2022-12-09T21:13:36.399Z,1.30
2022-12-09T21:16:16.889Z,1.30
2022-12-09T21:18:44.933Z,1.30
2022-12-09T21:21:13.048Z,1.40
2022-12-09T21:23:41.477Z,1.40
2022-12-09T21:26:11.162Z,1.40
2022-12-09T21:28:40.955Z,1.40
2022-12-09T21:31:09.761Z,1.40
2022-12-09T21:33:38.487Z,1.40
2022-12-09T21:36:07.274Z,1.40
2022-12-09T21:38:35.436Z,1.40
2022-12-09T21:41:04.847Z,1.40
2022-12-09T21:43:32.924Z,1.40
2022-12-09T21:46:04.070Z,1.40
2022-12-09T21:48:32.226Z,1.40
2022-12-09T21:51:01.287Z,1.40
2022-12-09T21:53:29.564Z,1.40
2022-12-09T21:56:01.826Z,1.40
2022-12-09T21:58:30.559Z,1.30
2022-12-09T22:00:58.797Z,1.30
2022-12-09T22:03:30.400Z,1.30
2022-12-09T22:06:00.105Z,1.30
2022-12-09T22:08:28.607Z,1.30
2022-12-09T22:10:58.326Z,1.30
2022-12-09T22:13:26.400Z,1.30
2022-12-09T22:15:54.535Z,1.30
2022-12-09T22:18:22.575Z,1.30
2022-12-09T22:21:23.746Z,1.30
2022-12-09T22:23:40.379Z,1.30
2022-12-09T22:26:11.018Z,1.20
2022-12-09T22:28:39.349Z,1.20
2022-12-09T22:31:09.727Z,1.20
2022-12-09T22:33:37.998Z,1.20
2022-12-09T22:36:09.138Z,1.10
2022-12-09T22:38:38.009Z,1.10
2022-12-09T22:41:06.506Z,1.10
2022-12-09T22:43:38.002Z,1.10
2022-12-09T22:46:07.117Z,1.00
2022-12-09T22:48:35.402Z,1.10
2022-12-09T22:51:04.624Z,1.00
2022-12-09T22:53:34.721Z,1.00
2022-12-09T22:56:03.099Z,1.00
2022-12-09T22:58:31.226Z,1.00
2022-12-09T23:00:59.289Z,0.90
2022-12-09T23:03:27.593Z,0.90
2022-12-09T23:05:55.712Z,0.80
2022-12-09T23:08:23.858Z,0.80
2022-12-09T23:10:53.290Z,0.80
2022-12-09T23:13:21.346Z,0.80
2022-12-09T23:15:49.338Z,0.60
2022-12-09T23:18:17.374Z,0.80
2022-12-09T23:20:45.440Z,0.80
2022-12-09T23:23:27.320Z,0.80
2022-12-09T23:25:56.887Z,0.80
2022-12-09T23:28:24.868Z,0.80
2022-12-09T23:30:55.973Z,0.80
2022-12-09T23:33:24.289Z,0.70
2022-12-09T23:35:52.320Z,0.80
2022-12-09T23:38:23.413Z,0.80
2022-12-09T23:40:51.760Z,0.70
2022-12-09T23:43:21.757Z,0.80
2022-12-09T23:45:49.713Z,0.70
2022-12-09T23:48:17.887Z,0.70
2022-12-09T23:50:46.011Z,0.70
2022-12-09T23:53:14.007Z,0.70
2022-12-09T23:55:42.445Z,0.70
2022-12-09T23:58:10.492Z,0.70
